sensor_id;sensor_type;location;lat;lon;timestamp;P1;durP1;ratioP1;P2;durP2;ratioP2
23406;SDS011;11876;53.438;18.942;2022-08-19T00:03:58;15.18;;;13.65;;
23406;SDS011;11876;53.438;18.942;2022-08-19T00:09:03;17.30;;;14.77;;
23406;SDS011;11876;53.438;18.942;2022-08-19T00:14:08;17.17;;;14.45;;
23406;SDS011;11876;53.438;18.942;2022-08-19T00:19:11;17.05;;;15.02;;
23406;SDS011;11876;53.438;18.942;2022-08-19T00:24:15;17.60;;;15.82;;
23406;SDS011;11876;53.438;18.942;2022-08-19T00:29:18;18.48;;;14.30;;
23406;SDS011;11876;53.438;18.942;2022-08-19T00:34:22;18.13;;;16.13;;
23406;SDS011;11876;53.438;18.942;2022-08-19T00:39:24;20.55;;;16.90;;
23406;SDS011;11876;53.438;18.942;2022-08-19T00:44:28;19.70;;;16.55;;
23406;SDS011;11876;53.438;18.942;2022-08-19T00:49:34;18.10;;;15.85;;
23406;SDS011;11876;53.438;18.942;2022-08-19T00:54:38;19.52;;;15.90;;
23406;SDS011;11876;53.438;18.942;2022-08-19T00:59:42;27.33;;;20.00;;
23406;SDS011;11876;53.438;18.942;2022-08-19T01:05:05;23.52;;;20.50;;
23406;SDS011;11876;53.438;18.942;2022-08-19T01:10:12;21.23;;;19.20;;
23406;SDS011;11876;53.438;18.942;2022-08-19T01:15:17;19.27;;;17.10;;
23406;SDS011;11876;53.438;18.942;2022-08-19T01:20:23;20.00;;;18.10;;
23406;SDS011;11876;53.438;18.942;2022-08-19T01:25:39;23.92;;;19.17;;
23406;SDS011;11876;53.438;18.942;2022-08-19T01:30:45;22.17;;;19.80;;
23406;SDS011;11876;53.438;18.942;2022-08-19T01:35:51;18.35;;;16.75;;
23406;SDS011;11876;53.438;18.942;2022-08-19T01:40:54;17.90;;;16.25;;
23406;SDS011;11876;53.438;18.942;2022-08-19T01:45:56;18.33;;;16.15;;
23406;SDS011;11876;53.438;18.942;2022-08-19T01:50:58;19.08;;;16.73;;
23406;SDS011;11876;53.438;18.942;2022-08-19T01:56:01;20.10;;;17.02;;
23406;SDS011;11876;53.438;18.942;2022-08-19T02:01:05;26.55;;;24.10;;
23406;SDS011;11876;53.438;18.942;2022-08-19T02:06:09;19.38;;;17.65;;
23406;SDS011;11876;53.438;18.942;2022-08-19T02:11:18;20.35;;;18.30;;
23406;SDS011;11876;53.438;18.942;2022-08-19T02:16:29;19.90;;;17.90;;
23406;SDS011;11876;53.438;18.942;2022-08-19T02:21:32;18.65;;;16.85;;
23406;SDS011;11876;53.438;18.942;2022-08-19T02:26:35;18.27;;;16.45;;
23406;SDS011;11876;53.438;18.942;2022-08-19T02:31:38;19.33;;;17.30;;
23406;SDS011;11876;53.438;18.942;2022-08-19T02:36:41;19.67;;;17.80;;
23406;SDS011;11876;53.438;18.942;2022-08-19T02:41:43;18.17;;;16.42;;
23406;SDS011;11876;53.438;18.942;2022-08-19T02:46:46;19.73;;;17.73;;
23406;SDS011;11876;53.438;18.942;2022-08-19T02:51:52;23.15;;;17.67;;
23406;SDS011;11876;53.438;18.942;2022-08-19T02:56:55;20.15;;;17.70;;
23406;SDS011;11876;53.438;18.942;2022-08-19T03:01:58;17.50;;;15.85;;
23406;SDS011;11876;53.438;18.942;2022-08-19T03:07:00;19.55;;;17.58;;
23406;SDS011;11876;53.438;18.942;2022-08-19T03:12:11;20.30;;;18.25;;
23406;SDS011;11876;53.438;18.942;2022-08-19T03:17:14;18.02;;;16.02;;
23406;SDS011;11876;53.438;18.942;2022-08-19T03:22:17;20.42;;;15.80;;
23406;SDS011;11876;53.438;18.942;2022-08-19T03:27:21;17.02;;;15.43;;
23406;SDS011;11876;53.438;18.942;2022-08-19T03:32:30;17.95;;;16.10;;
23406;SDS011;11876;53.438;18.942;2022-08-19T03:37:41;17.25;;;15.65;;
23406;SDS011;11876;53.438;18.942;2022-08-19T03:42:44;18.50;;;16.58;;
23406;SDS011;11876;53.438;18.942;2022-08-19T03:47:49;17.23;;;15.43;;
23406;SDS011;11876;53.438;18.942;2022-08-19T03:52:52;18.77;;;16.48;;
23406;SDS011;11876;53.438;18.942;2022-08-19T03:57:55;17.80;;;16.05;;
23406;SDS011;11876;53.438;18.942;2022-08-19T04:02:59;18.75;;;16.15;;
23406;SDS011;11876;53.438;18.942;2022-08-19T04:08:03;17.80;;;15.95;;
23406;SDS011;11876;53.438;18.942;2022-08-19T04:13:16;16.77;;;15.13;;
23406;SDS011;11876;53.438;18.942;2022-08-19T04:18:19;19.90;;;18.00;;
23406;SDS011;11876;53.438;18.942;2022-08-19T04:23:22;17.77;;;16.17;;
23406;SDS011;11876;53.438;18.942;2022-08-19T04:28:25;21.85;;;16.77;;
23406;SDS011;11876;53.438;18.942;2022-08-19T04:33:28;17.42;;;15.68;;
23406;SDS011;11876;53.438;18.942;2022-08-19T04:38:30;22.63;;;14.85;;
23406;SDS011;11876;53.438;18.942;2022-08-19T04:43:33;19.50;;;14.13;;
23406;SDS011;11876;53.438;18.942;2022-08-19T04:48:38;16.65;;;14.02;;
23406;SDS011;11876;53.438;18.942;2022-08-19T04:53:50;28.65;;;15.25;;
23406;SDS011;11876;53.438;18.942;2022-08-19T04:58:54;21.20;;;14.05;;
23406;SDS011;11876;53.438;18.942;2022-08-19T05:03:58;27.52;;;14.60;;
23406;SDS011;11876;53.438;18.942;2022-08-19T05:09:02;17.15;;;15.23;;
23406;SDS011;11876;53.438;18.942;2022-08-19T05:14:07;46.55;;;15.88;;
23406;SDS011;11876;53.438;18.942;2022-08-19T05:19:10;14.43;;;12.95;;
23406;SDS011;11876;53.438;18.942;2022-08-19T05:24:34;34.78;;;15.18;;
23406;SDS011;11876;53.438;18.942;2022-08-19T05:29:51;20.00;;;13.48;;
23406;SDS011;11876;53.438;18.942;2022-08-19T05:34:54;15.68;;;12.73;;
23406;SDS011;11876;53.438;18.942;2022-08-19T05:39:56;14.00;;;11.90;;
23406;SDS011;11876;53.438;18.942;2022-08-19T05:44:59;16.13;;;11.90;;
23406;SDS011;11876;53.438;18.942;2022-08-19T05:50:03;16.83;;;12.45;;
23406;SDS011;11876;53.438;18.942;2022-08-19T05:55:06;16.60;;;12.10;;
23406;SDS011;11876;53.438;18.942;2022-08-19T06:00:09;20.20;;;12.82;;
23406;SDS011;11876;53.438;18.942;2022-08-19T06:05:13;16.20;;;12.38;;
23406;SDS011;11876;53.438;18.942;2022-08-19T06:10:15;15.45;;;11.73;;
23406;SDS011;11876;53.438;18.942;2022-08-19T06:15:18;15.88;;;11.57;;
23406;SDS011;11876;53.438;18.942;2022-08-19T06:20:20;13.80;;;11.05;;
23406;SDS011;11876;53.438;18.942;2022-08-19T06:25:43;18.55;;;10.38;;
23406;SDS011;11876;53.438;18.942;2022-08-19T06:30:45;16.23;;;10.40;;
23406;SDS011;11876;53.438;18.942;2022-08-19T06:35:48;18.38;;;10.98;;
23406;SDS011;11876;53.438;18.942;2022-08-19T06:40:50;14.82;;;9.75;;
23406;SDS011;11876;53.438;18.942;2022-08-19T06:45:53;9.80;;;8.55;;
23406;SDS011;11876;53.438;18.942;2022-08-19T06:50:56;12.43;;;10.30;;
23406;SDS011;11876;53.438;18.942;2022-08-19T06:55:59;17.38;;;10.02;;
23406;SDS011;11876;53.438;18.942;2022-08-19T07:01:04;14.68;;;9.30;;
23406;SDS011;11876;53.438;18.942;2022-08-19T07:06:10;10.10;;;9.13;;
23406;SDS011;11876;53.438;18.942;2022-08-19T07:11:36;15.10;;;8.80;;
23406;SDS011;11876;53.438;18.942;2022-08-19T07:16:38;13.10;;;8.00;;
23406;SDS011;11876;53.438;18.942;2022-08-19T07:21:43;13.77;;;8.48;;
23406;SDS011;11876;53.438;18.942;2022-08-19T07:26:50;13.02;;;8.88;;
23406;SDS011;11876;53.438;18.942;2022-08-19T07:31:53;12.45;;;7.90;;
23406;SDS011;11876;53.438;18.942;2022-08-19T07:37:01;13.82;;;9.00;;
23406;SDS011;11876;53.438;18.942;2022-08-19T07:42:06;19.30;;;9.52;;
23406;SDS011;11876;53.438;18.942;2022-08-19T07:47:13;20.85;;;9.35;;
23406;SDS011;11876;53.438;18.942;2022-08-19T07:52:37;10.45;;;8.38;;
23406;SDS011;11876;53.438;18.942;2022-08-19T07:57:49;11.30;;;8.52;;
23406;SDS011;11876;53.438;18.942;2022-08-19T08:02:54;21.70;;;9.68;;
23406;SDS011;11876;53.438;18.942;2022-08-19T08:07:59;15.40;;;9.27;;
23406;SDS011;11876;53.438;18.942;2022-08-19T08:13:20;20.85;;;10.07;;
23406;SDS011;11876;53.438;18.942;2022-08-19T08:18:23;11.23;;;8.85;;
23406;SDS011;11876;53.438;18.942;2022-08-19T08:23:28;14.80;;;7.72;;
23406;SDS011;11876;53.438;18.942;2022-08-19T08:28:31;8.77;;;7.88;;
23406;SDS011;11876;53.438;18.942;2022-08-19T08:33:34;19.77;;;8.98;;
23406;SDS011;11876;53.438;18.942;2022-08-19T08:38:38;9.52;;;8.60;;
23406;SDS011;11876;53.438;18.942;2022-08-19T08:43:44;12.68;;;8.35;;
23406;SDS011;11876;53.438;18.942;2022-08-19T08:48:55;9.40;;;7.28;;
23406;SDS011;11876;53.438;18.942;2022-08-19T08:54:01;7.70;;;6.53;;
23406;SDS011;11876;53.438;18.942;2022-08-19T08:59:12;11.02;;;6.35;;
23406;SDS011;11876;53.438;18.942;2022-08-19T09:04:25;19.80;;;7.53;;
23406;SDS011;11876;53.438;18.942;2022-08-19T09:09:30;19.48;;;8.77;;
23406;SDS011;11876;53.438;18.942;2022-08-19T09:19:53;14.10;;;9.15;;
23406;SDS011;11876;53.438;18.942;2022-08-19T09:25:02;14.98;;;7.43;;
23406;SDS011;11876;53.438;18.942;2022-08-19T09:30:06;13.45;;;7.78;;
23406;SDS011;11876;53.438;18.942;2022-08-19T09:35:10;13.50;;;7.53;;
23406;SDS011;11876;53.438;18.942;2022-08-19T09:40:14;16.30;;;7.43;;
23406;SDS011;11876;53.438;18.942;2022-08-19T09:45:17;7.80;;;6.90;;
23406;SDS011;11876;53.438;18.942;2022-08-19T09:50:22;13.05;;;7.32;;
23406;SDS011;11876;53.438;18.942;2022-08-19T09:55:25;10.52;;;6.45;;
23406;SDS011;11876;53.438;18.942;2022-08-19T10:05:35;11.10;;;6.72;;
23406;SDS011;11876;53.438;18.942;2022-08-19T10:10:50;10.63;;;7.15;;
23406;SDS011;11876;53.438;18.942;2022-08-19T10:15:53;31.15;;;7.53;;
23406;SDS011;11876;53.438;18.942;2022-08-19T10:21:08;15.95;;;6.97;;
23406;SDS011;11876;53.438;18.942;2022-08-19T10:26:14;15.15;;;7.22;;
23406;SDS011;11876;53.438;18.942;2022-08-19T10:31:27;13.15;;;6.75;;
23406;SDS011;11876;53.438;18.942;2022-08-19T10:36:52;13.27;;;6.95;;
23406;SDS011;11876;53.438;18.942;2022-08-19T10:41:57;21.45;;;8.35;;
23406;SDS011;11876;53.438;18.942;2022-08-19T10:46:59;9.88;;;7.03;;
23406;SDS011;11876;53.438;18.942;2022-08-19T10:52:02;10.40;;;6.75;;
23406;SDS011;11876;53.438;18.942;2022-08-19T10:57:34;12.18;;;6.50;;
23406;SDS011;11876;53.438;18.942;2022-08-19T11:02:57;39.92;;;9.30;;
23406;SDS011;11876;53.438;18.942;2022-08-19T11:07:59;19.55;;;7.78;;
23406;SDS011;11876;53.438;18.942;2022-08-19T11:13:08;10.52;;;6.18;;
23406;SDS011;11876;53.438;18.942;2022-08-19T11:18:10;9.15;;;5.97;;
23406;SDS011;11876;53.438;18.942;2022-08-19T11:23:13;32.55;;;9.20;;
23406;SDS011;11876;53.438;18.942;2022-08-19T11:28:16;12.90;;;7.28;;
23406;SDS011;11876;53.438;18.942;2022-08-19T11:33:18;14.32;;;7.78;;
23406;SDS011;11876;53.438;18.942;2022-08-19T11:38:21;17.52;;;8.13;;
23406;SDS011;11876;53.438;18.942;2022-08-19T11:43:24;9.32;;;7.75;;
23406;SDS011;11876;53.438;18.942;2022-08-19T11:48:28;12.75;;;6.75;;
23406;SDS011;11876;53.438;18.942;2022-08-19T11:53:30;16.05;;;8.00;;
23406;SDS011;11876;53.438;18.942;2022-08-19T11:58:33;10.85;;;7.38;;
23406;SDS011;11876;53.438;18.942;2022-08-19T12:03:36;10.48;;;7.55;;
23406;SDS011;11876;53.438;18.942;2022-08-19T12:08:39;33.28;;;9.45;;
23406;SDS011;11876;53.438;18.942;2022-08-19T12:13:43;10.85;;;6.88;;
23406;SDS011;11876;53.438;18.942;2022-08-19T12:18:47;10.18;;;6.82;;
23406;SDS011;11876;53.438;18.942;2022-08-19T12:23:50;19.73;;;8.15;;
23406;SDS011;11876;53.438;18.942;2022-08-19T12:28:56;11.57;;;7.90;;
23406;SDS011;11876;53.438;18.942;2022-08-19T12:34:01;8.65;;;5.82;;
23406;SDS011;11876;53.438;18.942;2022-08-19T12:39:03;10.85;;;6.45;;
23406;SDS011;11876;53.438;18.942;2022-08-19T12:44:10;16.42;;;6.90;;
23406;SDS011;11876;53.438;18.942;2022-08-19T12:49:15;14.40;;;8.00;;
23406;SDS011;11876;53.438;18.942;2022-08-19T12:54:38;9.38;;;6.60;;
23406;SDS011;11876;53.438;18.942;2022-08-19T12:59:40;7.95;;;6.72;;
23406;SDS011;11876;53.438;18.942;2022-08-19T13:04:43;24.27;;;6.68;;
23406;SDS011;11876;53.438;18.942;2022-08-19T13:09:46;13.55;;;6.90;;
23406;SDS011;11876;53.438;18.942;2022-08-19T13:14:48;12.95;;;6.35;;
23406;SDS011;11876;53.438;18.942;2022-08-19T13:19:52;15.45;;;8.45;;
23406;SDS011;11876;53.438;18.942;2022-08-19T13:24:54;15.63;;;7.47;;
23406;SDS011;11876;53.438;18.942;2022-08-19T13:29:57;11.02;;;6.68;;
23406;SDS011;11876;53.438;18.942;2022-08-19T13:35:21;13.65;;;7.25;;
23406;SDS011;11876;53.438;18.942;2022-08-19T13:40:24;11.00;;;7.05;;
23406;SDS011;11876;53.438;18.942;2022-08-19T13:45:29;11.10;;;6.03;;
23406;SDS011;11876;53.438;18.942;2022-08-19T13:50:39;15.63;;;7.55;;
23406;SDS011;11876;53.438;18.942;2022-08-19T13:55:43;22.38;;;7.80;;
23406;SDS011;11876;53.438;18.942;2022-08-19T14:00:46;12.07;;;7.90;;
23406;SDS011;11876;53.438;18.942;2022-08-19T14:05:49;14.38;;;8.82;;
23406;SDS011;11876;53.438;18.942;2022-08-19T14:10:52;10.65;;;8.15;;
23406;SDS011;11876;53.438;18.942;2022-08-19T14:15:54;10.73;;;8.50;;
23406;SDS011;11876;53.438;18.942;2022-08-19T14:20:57;14.40;;;7.45;;
23406;SDS011;11876;53.438;18.942;2022-08-19T14:26:07;7.80;;;6.28;;
23406;SDS011;11876;53.438;18.942;2022-08-19T14:31:11;12.85;;;7.07;;
23406;SDS011;11876;53.438;18.942;2022-08-19T14:36:15;11.38;;;7.00;;
23406;SDS011;11876;53.438;18.942;2022-08-19T14:41:21;8.65;;;6.15;;
23406;SDS011;11876;53.438;18.942;2022-08-19T14:46:28;7.45;;;5.90;;
23406;SDS011;11876;53.438;18.942;2022-08-19T14:51:30;9.18;;;6.88;;
23406;SDS011;11876;53.438;18.942;2022-08-19T14:56:33;7.43;;;6.25;;
23406;SDS011;11876;53.438;18.942;2022-08-19T15:01:36;7.70;;;6.22;;
23406;SDS011;11876;53.438;18.942;2022-08-19T15:06:39;12.45;;;6.65;;
23406;SDS011;11876;53.438;18.942;2022-08-19T15:11:43;10.98;;;6.85;;
23406;SDS011;11876;53.438;18.942;2022-08-19T15:16:46;13.68;;;7.18;;
23406;SDS011;11876;53.438;18.942;2022-08-19T15:21:48;15.48;;;7.53;;
23406;SDS011;11876;53.438;18.942;2022-08-19T15:26:52;11.73;;;6.03;;
23406;SDS011;11876;53.438;18.942;2022-08-19T15:31:57;11.75;;;6.28;;
23406;SDS011;11876;53.438;18.942;2022-08-19T15:37:01;8.57;;;6.82;;
23406;SDS011;11876;53.438;18.942;2022-08-19T15:42:06;12.23;;;8.02;;
23406;SDS011;11876;53.438;18.942;2022-08-19T15:47:09;8.85;;;7.25;;
23406;SDS011;11876;53.438;18.942;2022-08-19T15:52:12;10.50;;;7.32;;
23406;SDS011;11876;53.438;18.942;2022-08-19T15:57:14;7.90;;;6.43;;
23406;SDS011;11876;53.438;18.942;2022-08-19T16:02:24;10.07;;;6.65;;
23406;SDS011;11876;53.438;18.942;2022-08-19T16:07:46;9.48;;;7.15;;
23406;SDS011;11876;53.438;18.942;2022-08-19T16:12:49;8.95;;;6.75;;
23406;SDS011;11876;53.438;18.942;2022-08-19T16:17:52;9.98;;;6.60;;
23406;SDS011;11876;53.438;18.942;2022-08-19T16:22:58;14.63;;;7.80;;
23406;SDS011;11876;53.438;18.942;2022-08-19T16:28:00;10.32;;;7.00;;
23406;SDS011;11876;53.438;18.942;2022-08-19T16:33:09;9.43;;;6.65;;
23406;SDS011;11876;53.438;18.942;2022-08-19T16:38:11;11.25;;;6.70;;
23406;SDS011;11876;53.438;18.942;2022-08-19T16:43:14;11.27;;;8.27;;
23406;SDS011;11876;53.438;18.942;2022-08-19T16:48:17;9.20;;;7.05;;
23406;SDS011;11876;53.438;18.942;2022-08-19T16:53:28;11.00;;;7.07;;
23406;SDS011;11876;53.438;18.942;2022-08-19T16:58:32;7.53;;;6.72;;
23406;SDS011;11876;53.438;18.942;2022-08-19T17:03:35;10.82;;;7.07;;
23406;SDS011;11876;53.438;18.942;2022-08-19T17:08:40;8.57;;;7.00;;
23406;SDS011;11876;53.438;18.942;2022-08-19T17:13:49;9.50;;;7.22;;
23406;SDS011;11876;53.438;18.942;2022-08-19T17:18:52;8.70;;;7.78;;
23406;SDS011;11876;53.438;18.942;2022-08-19T17:23:57;13.13;;;7.65;;
23406;SDS011;11876;53.438;18.942;2022-08-19T17:29:01;8.52;;;7.55;;
23406;SDS011;11876;53.438;18.942;2022-08-19T17:34:04;12.48;;;8.18;;
23406;SDS011;11876;53.438;18.942;2022-08-19T17:39:09;10.32;;;7.15;;
23406;SDS011;11876;53.438;18.942;2022-08-19T17:44:12;11.35;;;7.65;;
23406;SDS011;11876;53.438;18.942;2022-08-19T17:49:15;16.10;;;8.35;;
23406;SDS011;11876;53.438;18.942;2022-08-19T17:54:19;14.07;;;9.13;;
23406;SDS011;11876;53.438;18.942;2022-08-19T17:59:21;11.85;;;8.68;;
23406;SDS011;11876;53.438;18.942;2022-08-19T18:04:30;14.55;;;11.07;;
23406;SDS011;11876;53.438;18.942;2022-08-19T18:09:34;13.65;;;10.27;;
23406;SDS011;11876;53.438;18.942;2022-08-19T18:14:43;12.90;;;11.30;;
23406;SDS011;11876;53.438;18.942;2022-08-19T18:19:46;12.98;;;9.15;;
23406;SDS011;11876;53.438;18.942;2022-08-19T18:24:49;11.70;;;9.43;;
23406;SDS011;11876;53.438;18.942;2022-08-19T18:29:52;13.00;;;9.48;;
23406;SDS011;11876;53.438;18.942;2022-08-19T18:35:00;10.40;;;9.30;;
23406;SDS011;11876;53.438;18.942;2022-08-19T18:40:05;9.57;;;8.77;;
23406;SDS011;11876;53.438;18.942;2022-08-19T18:45:27;11.82;;;9.02;;
23406;SDS011;11876;53.438;18.942;2022-08-19T18:50:48;14.75;;;8.90;;
23406;SDS011;11876;53.438;18.942;2022-08-19T18:55:51;11.63;;;9.18;;
23406;SDS011;11876;53.438;18.942;2022-08-19T19:00:55;14.90;;;9.45;;
23406;SDS011;11876;53.438;18.942;2022-08-19T19:05:58;10.60;;;8.88;;
23406;SDS011;11876;53.438;18.942;2022-08-19T19:11:01;13.73;;;7.95;;
23406;SDS011;11876;53.438;18.942;2022-08-19T19:16:06;11.18;;;8.35;;
23406;SDS011;11876;53.438;18.942;2022-08-19T19:21:12;10.57;;;9.25;;
23406;SDS011;11876;53.438;18.942;2022-08-19T19:26:14;11.88;;;9.05;;
23406;SDS011;11876;53.438;18.942;2022-08-19T19:31:19;9.90;;;8.85;;
23406;SDS011;11876;53.438;18.942;2022-08-19T19:36:23;11.90;;;9.25;;
23406;SDS011;11876;53.438;18.942;2022-08-19T19:41:26;11.48;;;8.18;;
23406;SDS011;11876;53.438;18.942;2022-08-19T19:46:29;14.00;;;8.32;;
23406;SDS011;11876;53.438;18.942;2022-08-19T19:51:33;12.27;;;8.13;;
23406;SDS011;11876;53.438;18.942;2022-08-19T19:56:39;10.40;;;8.27;;
23406;SDS011;11876;53.438;18.942;2022-08-19T20:01:43;12.50;;;8.32;;
23406;SDS011;11876;53.438;18.942;2022-08-19T20:06:47;17.27;;;9.32;;
23406;SDS011;11876;53.438;18.942;2022-08-19T20:11:51;13.95;;;8.00;;
23406;SDS011;11876;53.438;18.942;2022-08-19T20:16:55;13.52;;;8.18;;
23406;SDS011;11876;53.438;18.942;2022-08-19T20:21:58;10.60;;;8.07;;
23406;SDS011;11876;53.438;18.942;2022-08-19T20:27:02;14.65;;;8.05;;
23406;SDS011;11876;53.438;18.942;2022-08-19T20:32:05;12.13;;;8.38;;
23406;SDS011;11876;53.438;18.942;2022-08-19T20:37:08;14.20;;;7.70;;
23406;SDS011;11876;53.438;18.942;2022-08-19T20:42:11;9.32;;;6.70;;
23406;SDS011;11876;53.438;18.942;2022-08-19T20:47:14;14.90;;;6.78;;
23406;SDS011;11876;53.438;18.942;2022-08-19T20:52:17;6.97;;;6.25;;
23406;SDS011;11876;53.438;18.942;2022-08-19T20:57:19;8.32;;;6.28;;
23406;SDS011;11876;53.438;18.942;2022-08-19T21:02:22;11.25;;;6.38;;
23406;SDS011;11876;53.438;18.942;2022-08-19T21:07:25;8.02;;;5.85;;
23406;SDS011;11876;53.438;18.942;2022-08-19T21:12:40;10.32;;;6.53;;
23406;SDS011;11876;53.438;18.942;2022-08-19T21:17:44;8.00;;;6.05;;
23406;SDS011;11876;53.438;18.942;2022-08-19T21:22:49;6.85;;;5.80;;
23406;SDS011;11876;53.438;18.942;2022-08-19T21:27:51;9.80;;;6.60;;
23406;SDS011;11876;53.438;18.942;2022-08-19T21:32:54;8.10;;;5.68;;
23406;SDS011;11876;53.438;18.942;2022-08-19T21:37:57;6.50;;;5.80;;
23406;SDS011;11876;53.438;18.942;2022-08-19T21:43:00;9.02;;;5.25;;
23406;SDS011;11876;53.438;18.942;2022-08-19T21:48:02;7.13;;;5.40;;
23406;SDS011;11876;53.438;18.942;2022-08-19T21:53:05;6.63;;;5.63;;
23406;SDS011;11876;53.438;18.942;2022-08-19T21:58:11;8.43;;;5.70;;
23406;SDS011;11876;53.438;18.942;2022-08-19T22:03:17;8.50;;;5.72;;
23406;SDS011;11876;53.438;18.942;2022-08-19T22:08:21;12.10;;;6.43;;
23406;SDS011;11876;53.438;18.942;2022-08-19T22:13:24;7.85;;;6.13;;
23406;SDS011;11876;53.438;18.942;2022-08-19T22:18:27;8.90;;;6.68;;
23406;SDS011;11876;53.438;18.942;2022-08-19T22:23:29;8.40;;;7.00;;
23406;SDS011;11876;53.438;18.942;2022-08-19T22:28:32;14.18;;;6.57;;
23406;SDS011;11876;53.438;18.942;2022-08-19T22:33:35;11.60;;;7.13;;
23406;SDS011;11876;53.438;18.942;2022-08-19T22:38:38;8.48;;;7.05;;
23406;SDS011;11876;53.438;18.942;2022-08-19T22:43:41;11.98;;;7.10;;
23406;SDS011;11876;53.438;18.942;2022-08-19T22:48:44;8.65;;;7.00;;
23406;SDS011;11876;53.438;18.942;2022-08-19T22:53:47;14.52;;;7.00;;
23406;SDS011;11876;53.438;18.942;2022-08-19T22:58:50;9.15;;;7.57;;
23406;SDS011;11876;53.438;18.942;2022-08-19T23:03:53;14.85;;;7.63;;
23406;SDS011;11876;53.438;18.942;2022-08-19T23:08:57;11.50;;;7.57;;
23406;SDS011;11876;53.438;18.942;2022-08-19T23:13:59;9.45;;;6.70;;
23406;SDS011;11876;53.438;18.942;2022-08-19T23:19:02;9.68;;;6.60;;
23406;SDS011;11876;53.438;18.942;2022-08-19T23:24:05;13.02;;;6.50;;
23406;SDS011;11876;53.438;18.942;2022-08-19T23:29:08;13.43;;;6.65;;
23406;SDS011;11876;53.438;18.942;2022-08-19T23:34:29;12.65;;;6.45;;
23406;SDS011;11876;53.438;18.942;2022-08-19T23:39:31;15.15;;;7.00;;
23406;SDS011;11876;53.438;18.942;2022-08-19T23:44:34;10.80;;;6.32;;
23406;SDS011;11876;53.438;18.942;2022-08-19T23:49:52;13.43;;;6.30;;
23406;SDS011;11876;53.438;18.942;2022-08-19T23:54:58;14.32;;;7.03;;
